METAR Data
IDs: Format: Raw Decoded Include TAF

Data at: 0148 UTC 24 May 2019

NZAA 240130Z AUTO 25005KT 9999 BKN037/// BKN044/// 16/13 Q1026 NOSIG
NZAA 240100Z AUTO 23003KT 9999 NCD 16/14 Q1026 NOSIG
NZAA 240030Z AUTO 27002KT 9999 NCD 16/13 Q1027 NOSIG
NZAA 240000Z AUTO 22004KT 9999 FEW036/// 15/13 Q1027 NOSIG
NZAA 232330Z AUTO 17005KT 140V210 9999 FEW027/// 17/13 Q1027 NOSIG
NZAA 232300Z AUTO 15004KT 110V170 9999 NCD 16/12 Q1028 NOSIG

TAF NZAA 232306Z 2400/2500 VRB02KT 9999 FEW030
  PROB40 2414/2422 0500 FG